sensor_id;sensor_type;location;lat;lon;timestamp;noise_LAeq;noise_LA_min;noise_LA_max;noise_LA01;noise_LA95
69611;Laerm;56817;52.302;4.844;2023-08-06T00:00:00;44.78;41.73;54.70;;
69611;Laerm;56817;52.302;4.844;2023-08-06T00:00:11;43.95;41.39;51.41;;
69611;Laerm;56817;52.302;4.844;2023-08-06T00:00:21;43.30;40.45;53.09;;
69611;Laerm;56817;52.302;4.844;2023-08-06T00:00:32;43.82;40.12;60.31;;
69611;Laerm;56817;52.302;4.844;2023-08-06T00:00:42;43.17;40.34;51.25;;
69611;Laerm;56817;52.302;4.844;2023-08-06T00:00:52;46.33;42.48;52.08;;
69611;Laerm;56817;52.302;4.844;2023-08-06T00:01:02;44.50;42.13;56.81;;
69611;Laerm;56817;52.302;4.844;2023-08-06T00:01:13;44.67;41.99;52.19;;
69611;Laerm;56817;52.302;4.844;2023-08-06T00:01:23;43.46;41.90;51.79;;
69611;Laerm;56817;52.302;4.844;2023-08-06T00:01:35;43.27;41.34;48.64;;
69611;Laerm;56817;52.302;4.844;2023-08-06T00:01:45;44.04;40.94;53.93;;
69611;Laerm;56817;52.302;4.844;2023-08-06T00:01:55;43.66;41.66;50.57;;
69611;Laerm;56817;52.302;4.844;2023-08-06T00:02:06;43.17;41.23;48.93;;
69611;Laerm;56817;52.302;4.844;2023-08-06T00:02:16;43.44;40.42;56.58;;
69611;Laerm;56817;52.302;4.844;2023-08-06T00:02:26;45.13;41.35;64.89;;
69611;Laerm;56817;52.302;4.844;2023-08-06T00:02:36;43.30;40.71;52.30;;
69611;Laerm;56817;52.302;4.844;2023-08-06T00:02:47;44.96;42.13;54.00;;
69611;Laerm;56817;52.302;4.844;2023-08-06T00:02:57;44.25;41.17;53.50;;
69611;Laerm;56817;52.302;4.844;2023-08-06T00:03:07;43.99;41.40;48.58;;
69611;Laerm;56817;52.302;4.844;2023-08-06T00:03:17;43.45;41.13;50.71;;
69611;Laerm;56817;52.302;4.844;2023-08-06T00:03:28;43.28;40.93;48.92;;
69611;Laerm;56817;52.302;4.844;2023-08-06T00:03:38;43.56;41.17;50.75;;
69611;Laerm;56817;52.302;4.844;2023-08-06T00:03:48;43.85;41.96;51.13;;
69611;Laerm;56817;52.302;4.844;2023-08-06T00:03:58;43.34;41.49;51.37;;
69611;Laerm;56817;52.302;4.844;2023-08-06T00:04:10;43.12;41.22;48.42;;
69611;Laerm;56817;52.302;4.844;2023-08-06T00:04:20;43.83;40.77;50.13;;
69611;Laerm;56817;52.302;4.844;2023-08-06T00:04:30;44.46;40.50;53.60;;
69611;Laerm;56817;52.302;4.844;2023-08-06T00:04:40;42.75;41.00;51.39;;
69611;Laerm;56817;52.302;4.844;2023-08-06T00:04:51;43.13;40.83;53.76;;
69611;Laerm;56817;52.302;4.844;2023-08-06T00:05:01;44.57;42.42;48.58;;
69611;Laerm;56817;52.302;4.844;2023-08-06T00:05:11;43.97;41.33;49.44;;
69611;Laerm;56817;52.302;4.844;2023-08-06T00:05:21;42.43;40.07;48.88;;
69611;Laerm;56817;52.302;4.844;2023-08-06T00:05:32;42.65;40.31;48.81;;
69611;Laerm;56817;52.302;4.844;2023-08-06T00:05:43;43.27;41.29;50.37;;
69611;Laerm;56817;52.302;4.844;2023-08-06T00:05:53;44.32;41.45;58.22;;
69611;Laerm;56817;52.302;4.844;2023-08-06T00:06:06;42.42;39.77;49.83;;
69611;Laerm;56817;52.302;4.844;2023-08-06T00:06:17;42.98;39.63;54.14;;
69611;Laerm;56817;52.302;4.844;2023-08-06T00:06:27;44.20;40.26;51.66;;
69611;Laerm;56817;52.302;4.844;2023-08-06T00:06:37;44.17;40.22;59.24;;
69611;Laerm;56817;52.302;4.844;2023-08-06T00:06:47;42.78;39.58;51.07;;
69611;Laerm;56817;52.302;4.844;2023-08-06T00:06:58;42.74;40.21;51.21;;
69611;Laerm;56817;52.302;4.844;2023-08-06T00:07:08;42.95;40.23;49.66;;
69611;Laerm;56817;52.302;4.844;2023-08-06T00:07:18;42.61;40.39;49.23;;
69611;Laerm;56817;52.302;4.844;2023-08-06T00:07:28;43.20;40.50;52.75;;
69611;Laerm;56817;52.302;4.844;2023-08-06T00:07:38;43.60;41.28;52.12;;
69611;Laerm;56817;52.302;4.844;2023-08-06T00:07:49;43.72;41.56;47.20;;
69611;Laerm;56817;52.302;4.844;2023-08-06T00:07:59;43.86;41.20;53.77;;
69611;Laerm;56817;52.302;4.844;2023-08-06T00:08:10;42.47;40.43;51.43;;
69611;Laerm;56817;52.302;4.844;2023-08-06T00:08:20;46.07;40.92;59.85;;
69611;Laerm;56817;52.302;4.844;2023-08-06T00:08:30;43.87;40.67;54.70;;
69611;Laerm;56817;52.302;4.844;2023-08-06T00:08:40;43.29;40.77;49.13;;
69611;Laerm;56817;52.302;4.844;2023-08-06T00:08:51;41.77;40.05;45.87;;
69611;Laerm;56817;52.302;4.844;2023-08-06T00:09:01;41.67;39.44;50.96;;
69611;Laerm;56817;52.302;4.844;2023-08-06T00:09:11;42.38;39.40;52.45;;
69611;Laerm;56817;52.302;4.844;2023-08-06T00:09:23;42.74;40.57;46.26;;
69611;Laerm;56817;52.302;4.844;2023-08-06T00:09:33;42.02;38.54;54.59;;
69611;Laerm;56817;52.302;4.844;2023-08-06T00:09:43;41.45;37.42;50.63;;
69611;Laerm;56817;52.302;4.844;2023-08-06T00:09:54;45.15;38.84;50.81;;
69611;Laerm;56817;52.302;4.844;2023-08-06T00:10:04;40.80;38.62;49.28;;
69611;Laerm;56817;52.302;4.844;2023-08-06T00:10:15;41.48;38.56;54.10;;
69611;Laerm;56817;52.302;4.844;2023-08-06T00:10:25;44.03;40.08;52.48;;
69611;Laerm;56817;52.302;4.844;2023-08-06T00:10:35;43.43;40.54;53.61;;
69611;Laerm;56817;52.302;4.844;2023-08-06T00:10:47;41.45;39.66;44.47;;
69611;Laerm;56817;52.302;4.844;2023-08-06T00:10:57;41.74;40.09;50.75;;
69611;Laerm;56817;52.302;4.844;2023-08-06T00:11:07;42.68;40.47;51.45;;
69611;Laerm;56817;52.302;4.844;2023-08-06T00:11:18;41.60;39.22;45.65;;
69611;Laerm;56817;52.302;4.844;2023-08-06T00:11:28;44.32;40.51;53.21;;
69611;Laerm;56817;52.302;4.844;2023-08-06T00:11:38;43.62;41.42;50.45;;
69611;Laerm;56817;52.302;4.844;2023-08-06T00:11:49;43.74;41.02;59.24;;
69611;Laerm;56817;52.302;4.844;2023-08-06T00:11:59;42.47;40.02;48.83;;
69611;Laerm;56817;52.302;4.844;2023-08-06T00:12:09;41.46;39.39;44.04;;
69611;Laerm;56817;52.302;4.844;2023-08-06T00:12:19;41.67;39.13;50.29;;
69611;Laerm;56817;52.302;4.844;2023-08-06T00:12:30;42.20;39.48;50.65;;
69611;Laerm;56817;52.302;4.844;2023-08-06T00:12:40;41.20;39.14;47.60;;
69611;Laerm;56817;52.302;4.844;2023-08-06T00:12:50;43.36;40.71;57.74;;
69611;Laerm;56817;52.302;4.844;2023-08-06T00:13:01;44.66;41.95;52.14;;
69611;Laerm;56817;52.302;4.844;2023-08-06T00:13:11;44.51;41.97;50.79;;
69611;Laerm;56817;52.302;4.844;2023-08-06T00:13:21;43.60;40.85;51.04;;
69611;Laerm;56817;52.302;4.844;2023-08-06T00:13:32;44.33;40.89;62.37;;
69611;Laerm;56817;52.302;4.844;2023-08-06T00:13:42;43.34;40.41;51.62;;
69611;Laerm;56817;52.302;4.844;2023-08-06T00:13:52;43.80;41.24;49.93;;
69611;Laerm;56817;52.302;4.844;2023-08-06T00:14:02;44.90;42.71;49.50;;
69611;Laerm;56817;52.302;4.844;2023-08-06T00:14:13;43.94;40.97;52.17;;
69611;Laerm;56817;52.302;4.844;2023-08-06T00:14:25;45.47;41.31;50.80;;
69611;Laerm;56817;52.302;4.844;2023-08-06T00:14:35;42.57;40.79;46.28;;
69611;Laerm;56817;52.302;4.844;2023-08-06T00:14:49;43.54;40.97;50.45;;
69611;Laerm;56817;52.302;4.844;2023-08-06T00:14:59;45.82;42.38;50.52;;
69611;Laerm;56817;52.302;4.844;2023-08-06T00:15:10;44.73;42.39;53.73;;
69611;Laerm;56817;52.302;4.844;2023-08-06T00:15:20;43.86;41.23;53.63;;
69611;Laerm;56817;52.302;4.844;2023-08-06T00:15:30;43.22;40.54;59.18;;
69611;Laerm;56817;52.302;4.844;2023-08-06T00:15:41;42.25;40.23;51.46;;
69611;Laerm;56817;52.302;4.844;2023-08-06T00:15:51;42.95;39.64;53.76;;
69611;Laerm;56817;52.302;4.844;2023-08-06T00:16:11;42.48;40.45;50.07;;
69611;Laerm;56817;52.302;4.844;2023-08-06T00:16:21;41.50;38.94;55.71;;
69611;Laerm;56817;52.302;4.844;2023-08-06T00:16:32;41.30;38.40;56.33;;
69611;Laerm;56817;52.302;4.844;2023-08-06T00:16:43;41.55;38.29;56.90;;
69611;Laerm;56817;52.302;4.844;2023-08-06T00:16:53;40.96;38.14;50.57;;
69611;Laerm;56817;52.302;4.844;2023-08-06T00:17:03;40.32;38.12;48.79;;
69611;Laerm;56817;52.302;4.844;2023-08-06T00:17:14;40.24;37.63;54.64;;
69611;Laerm;56817;52.302;4.844;2023-08-06T00:17:25;41.29;38.36;55.91;;
69611;Laerm;56817;52.302;4.844;2023-08-06T00:17:35;40.88;38.35;48.92;;
69611;Laerm;56817;52.302;4.844;2023-08-06T00:17:45;41.66;39.65;48.56;;
69611;Laerm;56817;52.302;4.844;2023-08-06T00:17:56;41.58;39.16;52.22;;
69611;Laerm;56817;52.302;4.844;2023-08-06T00:18:06;40.74;38.43;49.48;;
69611;Laerm;56817;52.302;4.844;2023-08-06T00:18:16;40.84;38.21;51.66;;
69611;Laerm;56817;52.302;4.844;2023-08-06T00:18:26;40.84;38.38;49.47;;
69611;Laerm;56817;52.302;4.844;2023-08-06T00:18:37;41.11;38.10;51.59;;
69611;Laerm;56817;52.302;4.844;2023-08-06T00:18:47;42.31;39.81;46.19;;
69611;Laerm;56817;52.302;4.844;2023-08-06T00:18:57;41.95;39.50;50.42;;
69611;Laerm;56817;52.302;4.844;2023-08-06T00:19:08;42.70;40.35;49.48;;
69611;Laerm;56817;52.302;4.844;2023-08-06T00:19:18;42.77;40.33;49.55;;
69611;Laerm;56817;52.302;4.844;2023-08-06T00:19:29;41.54;38.89;51.15;;
69611;Laerm;56817;52.302;4.844;2023-08-06T00:19:39;40.46;38.57;48.57;;
69611;Laerm;56817;52.302;4.844;2023-08-06T00:19:49;43.04;38.94;61.03;;
69611;Laerm;56817;52.302;4.844;2023-08-06T00:20:00;41.36;38.99;50.93;;
69611;Laerm;56817;52.302;4.844;2023-08-06T00:20:14;41.11;38.92;51.22;;
69611;Laerm;56817;52.302;4.844;2023-08-06T00:20:24;42.60;38.60;62.11;;
69611;Laerm;56817;52.302;4.844;2023-08-06T00:20:35;41.02;38.49;46.75;;
69611;Laerm;56817;52.302;4.844;2023-08-06T00:20:45;43.72;39.37;50.10;;
69611;Laerm;56817;52.302;4.844;2023-08-06T00:20:55;43.69;39.31;53.24;;
69611;Laerm;56817;52.302;4.844;2023-08-06T00:21:05;41.28;38.24;45.54;;
69611;Laerm;56817;52.302;4.844;2023-08-06T00:21:16;41.79;38.97;49.28;;
69611;Laerm;56817;52.302;4.844;2023-08-06T00:21:26;41.49;38.04;50.54;;
69611;Laerm;56817;52.302;4.844;2023-08-06T00:21:36;40.60;37.61;48.14;;
69611;Laerm;56817;52.302;4.844;2023-08-06T00:21:46;40.17;37.28;48.10;;
69611;Laerm;56817;52.302;4.844;2023-08-06T00:21:57;40.35;38.13;48.21;;
69611;Laerm;56817;52.302;4.844;2023-08-06T00:22:07;40.19;37.65;48.70;;
69611;Laerm;56817;52.302;4.844;2023-08-06T00:22:17;40.87;37.95;56.22;;
69611;Laerm;56817;52.302;4.844;2023-08-06T00:22:27;40.63;37.90;45.17;;
69611;Laerm;56817;52.302;4.844;2023-08-06T00:22:38;41.10;37.44;51.21;;
69611;Laerm;56817;52.302;4.844;2023-08-06T00:22:48;40.76;38.32;46.19;;
69611;Laerm;56817;52.302;4.844;2023-08-06T00:22:59;40.50;37.88;45.53;;
69611;Laerm;56817;52.302;4.844;2023-08-06T00:23:09;40.68;38.29;48.02;;
69611;Laerm;56817;52.302;4.844;2023-08-06T00:23:19;41.66;38.58;47.46;;
69611;Laerm;56817;52.302;4.844;2023-08-06T00:23:32;42.32;39.69;49.07;;
69611;Laerm;56817;52.302;4.844;2023-08-06T00:23:42;41.40;39.19;53.59;;
69611;Laerm;56817;52.302;4.844;2023-08-06T00:23:52;41.36;38.67;48.59;;
69611;Laerm;56817;52.302;4.844;2023-08-06T00:24:03;41.38;38.61;52.78;;
69611;Laerm;56817;52.302;4.844;2023-08-06T00:24:13;41.98;39.16;50.15;;
69611;Laerm;56817;52.302;4.844;2023-08-06T00:24:23;42.13;38.16;54.96;;
69611;Laerm;56817;52.302;4.844;2023-08-06T00:24:34;39.43;37.21;45.79;;
69611;Laerm;56817;52.302;4.844;2023-08-06T00:24:44;42.90;37.55;59.94;;
69611;Laerm;56817;52.302;4.844;2023-08-06T00:24:55;42.05;39.94;51.71;;
69611;Laerm;56817;52.302;4.844;2023-08-06T00:25:07;40.32;38.29;45.54;;
69611;Laerm;56817;52.302;4.844;2023-08-06T00:25:18;40.11;37.65;52.20;;
69611;Laerm;56817;52.302;4.844;2023-08-06T00:25:28;41.12;37.80;58.74;;
69611;Laerm;56817;52.302;4.844;2023-08-06T00:25:38;39.32;37.20;50.12;;
69611;Laerm;56817;52.302;4.844;2023-08-06T00:25:48;39.66;37.49;45.83;;
69611;Laerm;56817;52.302;4.844;2023-08-06T00:25:59;39.76;37.09;53.05;;
69611;Laerm;56817;52.302;4.844;2023-08-06T00:26:09;39.32;37.32;52.26;;
69611;Laerm;56817;52.302;4.844;2023-08-06T00:26:19;40.36;37.81;53.36;;
69611;Laerm;56817;52.302;4.844;2023-08-06T00:26:29;40.31;38.40;52.94;;
69611;Laerm;56817;52.302;4.844;2023-08-06T00:26:40;40.67;38.14;49.47;;
69611;Laerm;56817;52.302;4.844;2023-08-06T00:26:50;43.79;39.06;49.15;;
69611;Laerm;56817;52.302;4.844;2023-08-06T00:27:00;43.12;39.30;52.73;;
69611;Laerm;56817;52.302;4.844;2023-08-06T00:27:11;42.61;39.65;49.36;;
69611;Laerm;56817;52.302;4.844;2023-08-06T00:27:21;42.15;39.34;49.13;;
69611;Laerm;56817;52.302;4.844;2023-08-06T00:27:31;42.71;39.24;50.20;;
69611;Laerm;56817;52.302;4.844;2023-08-06T00:27:42;41.96;39.42;50.57;;
69611;Laerm;56817;52.302;4.844;2023-08-06T00:27:52;41.69;39.64;50.64;;
69611;Laerm;56817;52.302;4.844;2023-08-06T00:28:03;42.25;40.18;50.16;;
69611;Laerm;56817;52.302;4.844;2023-08-06T00:28:13;43.31;40.83;51.58;;
69611;Laerm;56817;52.302;4.844;2023-08-06T00:28:23;41.45;39.27;46.02;;
69611;Laerm;56817;52.302;4.844;2023-08-06T00:28:34;40.79;38.54;43.05;;
69611;Laerm;56817;52.302;4.844;2023-08-06T00:28:44;40.89;39.05;47.33;;
69611;Laerm;56817;52.302;4.844;2023-08-06T00:28:54;40.82;38.94;50.27;;
69611;Laerm;56817;52.302;4.844;2023-08-06T00:29:04;40.91;39.05;50.57;;
69611;Laerm;56817;52.302;4.844;2023-08-06T00:29:15;42.98;39.90;47.18;;
69611;Laerm;56817;52.302;4.844;2023-08-06T00:29:25;44.36;41.19;51.31;;
69611;Laerm;56817;52.302;4.844;2023-08-06T00:29:35;42.41;38.74;54.15;;
69611;Laerm;56817;52.302;4.844;2023-08-06T00:29:45;40.64;38.69;50.82;;
69611;Laerm;56817;52.302;4.844;2023-08-06T00:29:56;40.19;38.17;50.38;;
69611;Laerm;56817;52.302;4.844;2023-08-06T00:30:06;41.57;38.82;52.96;;
69611;Laerm;56817;52.302;4.844;2023-08-06T00:30:16;41.38;39.50;48.78;;
69611;Laerm;56817;52.302;4.844;2023-08-06T00:30:27;42.72;40.52;50.29;;
69611;Laerm;56817;52.302;4.844;2023-08-06T00:30:37;42.86;40.63;51.69;;
69611;Laerm;56817;52.302;4.844;2023-08-06T00:30:53;42.96;39.74;58.43;;
69611;Laerm;56817;52.302;4.844;2023-08-06T00:31:04;41.20;38.52;55.20;;
69611;Laerm;56817;52.302;4.844;2023-08-06T00:31:14;40.15;38.19;49.41;;
69611;Laerm;56817;52.302;4.844;2023-08-06T00:31:24;40.88;37.91;48.13;;
69611;Laerm;56817;52.302;4.844;2023-08-06T00:31:35;41.90;39.92;48.41;;
69611;Laerm;56817;52.302;4.844;2023-08-06T00:31:45;41.49;39.32;50.38;;
69611;Laerm;56817;52.302;4.844;2023-08-06T00:31:55;42.45;40.08;49.88;;
69611;Laerm;56817;52.302;4.844;2023-08-06T00:32:05;41.58;38.69;52.81;;
69611;Laerm;56817;52.302;4.844;2023-08-06T00:32:17;42.07;39.00;52.81;;
69611;Laerm;56817;52.302;4.844;2023-08-06T00:32:27;43.17;40.80;51.19;;
69611;Laerm;56817;52.302;4.844;2023-08-06T00:32:37;42.55;40.33;54.70;;
69611;Laerm;56817;52.302;4.844;2023-08-06T00:32:47;42.64;39.62;55.32;;
69611;Laerm;56817;52.302;4.844;2023-08-06T00:32:59;40.75;38.63;47.87;;
69611;Laerm;56817;52.302;4.844;2023-08-06T00:33:09;40.42;37.97;49.26;;
69611;Laerm;56817;52.302;4.844;2023-08-06T00:33:19;41.56;37.98;60.19;;
69611;Laerm;56817;52.302;4.844;2023-08-06T00:33:30;39.11;36.96;43.10;;
69611;Laerm;56817;52.302;4.844;2023-08-06T00:33:40;39.52;36.83;44.08;;
69611;Laerm;56817;52.302;4.844;2023-08-06T00:33:50;40.63;38.05;49.10;;
69611;Laerm;56817;52.302;4.844;2023-08-06T00:34:00;41.42;37.08;62.26;;
69611;Laerm;56817;52.302;4.844;2023-08-06T00:34:11;43.59;35.67;66.19;;
69611;Laerm;56817;52.302;4.844;2023-08-06T00:34:21;44.13;36.70;64.58;;
69611;Laerm;56817;52.302;4.844;2023-08-06T00:34:31;40.26;37.78;53.65;;
69611;Laerm;56817;52.302;4.844;2023-08-06T00:34:41;40.10;37.71;47.00;;
69611;Laerm;56817;52.302;4.844;2023-08-06T00:34:52;43.30;38.93;63.13;;
69611;Laerm;56817;52.302;4.844;2023-08-06T00:35:02;42.43;39.24;55.39;;
69611;Laerm;56817;52.302;4.844;2023-08-06T00:35:13;40.81;36.35;48.57;;
69611;Laerm;56817;52.302;4.844;2023-08-06T00:35:23;39.61;36.48;44.73;;
69611;Laerm;56817;52.302;4.844;2023-08-06T00:35:33;42.89;37.45;55.82;;
69611;Laerm;56817;52.302;4.844;2023-08-06T00:35:44;40.16;36.79;55.22;;
69611;Laerm;56817;52.302;4.844;2023-08-06T00:35:54;41.33;38.63;53.53;;
69611;Laerm;56817;52.302;4.844;2023-08-06T00:36:04;43.85;40.01;54.99;;
69611;Laerm;56817;52.302;4.844;2023-08-06T00:36:14;44.65;40.62;49.70;;
69611;Laerm;56817;52.302;4.844;2023-08-06T00:36:25;42.14;39.54;54.66;;
69611;Laerm;56817;52.302;4.844;2023-08-06T00:36:35;41.48;39.47;47.14;;
69611;Laerm;56817;52.302;4.844;2023-08-06T00:36:45;42.27;39.92;48.89;;
69611;Laerm;56817;52.302;4.844;2023-08-06T00:36:56;42.94;39.45;49.92;;
69611;Laerm;56817;52.302;4.844;2023-08-06T00:37:06;39.68;37.56;50.11;;
69611;Laerm;56817;52.302;4.844;2023-08-06T00:37:16;39.35;36.45;53.61;;
69611;Laerm;56817;52.302;4.844;2023-08-06T00:37:27;39.91;37.18;52.10;;
69611;Laerm;56817;52.302;4.844;2023-08-06T00:37:37;39.25;36.89;44.72;;
69611;Laerm;56817;52.302;4.844;2023-08-06T00:37:47;41.12;38.25;46.87;;
69611;Laerm;56817;52.302;4.844;2023-08-06T00:37:57;43.21;38.14;50.57;;
69611;Laerm;56817;52.302;4.844;2023-08-06T00:38:08;41.06;37.40;50.34;;
69611;Laerm;56817;52.302;4.844;2023-08-06T00:38:18;39.99;38.04;49.16;;
69611;Laerm;56817;52.302;4.844;2023-08-06T00:38:28;39.40;37.27;50.19;;
69611;Laerm;56817;52.302;4.844;2023-08-06T00:38:38;39.52;36.79;49.50;;
69611;Laerm;56817;52.302;4.844;2023-08-06T00:38:49;41.64;37.80;46.53;;
69611;Laerm;56817;52.302;4.844;2023-08-06T00:38:59;41.35;38.56;48.53;;
69611;Laerm;56817;52.302;4.844;2023-08-06T00:39:09;39.93;37.53;46.91;;
69611;Laerm;56817;52.302;4.844;2023-08-06T00:39:19;40.51;37.72;46.84;;
69611;Laerm;56817;52.302;4.844;2023-08-06T00:39:30;40.38;37.99;49.19;;
69611;Laerm;56817;52.302;4.844;2023-08-06T00:39:40;40.34;37.66;55.46;;
69611;Laerm;56817;52.302;4.844;2023-08-06T00:39:50;42.62;37.85;49.86;;
69611;Laerm;56817;52.302;4.844;2023-08-06T00:40:00;46.77;39.11;53.68;;
69611;Laerm;56817;52.302;4.844;2023-08-06T00:40:11;39.95;37.80;44.49;;
69611;Laerm;56817;52.302;4.844;2023-08-06T00:40:21;40.97;38.89;44.85;;
69611;Laerm;56817;52.302;4.844;2023-08-06T00:40:32;42.34;39.19;48.94;;
69611;Laerm;56817;52.302;4.844;2023-08-06T00:40:42;40.46;38.68;46.19;;
69611;Laerm;56817;52.302;4.844;2023-08-06T00:40:53;40.27;37.14;55.67;;
69611;Laerm;56817;52.302;4.844;2023-08-06T00:41:03;39.53;37.26;44.73;;
69611;Laerm;56817;52.302;4.844;2023-08-06T00:41:14;38.84;36.57;44.27;;
69611;Laerm;56817;52.302;4.844;2023-08-06T00:41:24;39.49;36.12;52.98;;
69611;Laerm;56817;52.302;4.844;2023-08-06T00:41:34;39.19;36.73;51.83;;
69611;Laerm;56817;52.302;4.844;2023-08-06T00:41:44;43.14;37.34;52.13;;
69611;Laerm;56817;52.302;4.844;2023-08-06T00:41:55;42.31;37.47;51.15;;
69611;Laerm;56817;52.302;4.844;2023-08-06T00:42:05;39.57;37.34;45.78;;
69611;Laerm;56817;52.302;4.844;2023-08-06T00:42:15;39.21;36.44;49.79;;
69611;Laerm;56817;52.302;4.844;2023-08-06T00:42:30;43.10;39.21;51.30;;
69611;Laerm;56817;52.302;4.844;2023-08-06T00:42:40;39.47;37.12;47.91;;
69611;Laerm;56817;52.302;4.844;2023-08-06T00:42:51;39.74;37.45;46.70;;
69611;Laerm;56817;52.302;4.844;2023-08-06T00:43:01;40.73;38.17;54.91;;
69611;Laerm;56817;52.302;4.844;2023-08-06T00:43:11;41.17;38.12;53.23;;
69611;Laerm;56817;52.302;4.844;2023-08-06T00:43:21;40.61;38.19;47.91;;
69611;Laerm;56817;52.302;4.844;2023-08-06T00:43:32;41.22;37.08;52.17;;
69611;Laerm;56817;52.302;4.844;2023-08-06T00:43:42;39.26;36.39;48.09;;
69611;Laerm;56817;52.302;4.844;2023-08-06T00:43:52;40.76;38.96;49.40;;
69611;Laerm;56817;52.302;4.844;2023-08-06T00:44:03;40.29;38.31;50.88;;
69611;Laerm;56817;52.302;4.844;2023-08-06T00:44:13;39.68;37.66;42.33;;
69611;Laerm;56817;52.302;4.844;2023-08-06T00:44:23;40.68;38.44;43.77;;
69611;Laerm;56817;52.302;4.844;2023-08-06T00:44:34;40.44;38.46;51.76;;
69611;Laerm;56817;52.302;4.844;2023-08-06T00:44:44;40.80;37.29;52.63;;
69611;Laerm;56817;52.302;4.844;2023-08-06T00:44:54;40.48;38.40;42.74;;
69611;Laerm;56817;52.302;4.844;2023-08-06T00:45:04;40.95;38.62;53.19;;
69611;Laerm;56817;52.302;4.844;2023-08-06T00:45:15;42.26;39.37;48.98;;
69611;Laerm;56817;52.302;4.844;2023-08-06T00:45:25;41.05;38.36;48.58;;
69611;Laerm;56817;52.302;4.844;2023-08-06T00:45:36;40.86;38.13;45.02;;
69611;Laerm;56817;52.302;4.844;2023-08-06T00:45:46;41.81;39.69;51.14;;
69611;Laerm;56817;52.302;4.844;2023-08-06T00:45:57;42.21;38.88;49.45;;
69611;Laerm;56817;52.302;4.844;2023-08-06T00:46:07;42.01;39.51;49.52;;
69611;Laerm;56817;52.302;4.844;2023-08-06T00:46:17;43.94;41.04;48.39;;
69611;Laerm;56817;52.302;4.844;2023-08-06T00:46:28;41.01;38.77;50.17;;
69611;Laerm;56817;52.302;4.844;2023-08-06T00:46:39;41.68;39.51;44.66;;
69611;Laerm;56817;52.302;4.844;2023-08-06T00:46:49;41.70;39.11;48.16;;
69611;Laerm;56817;52.302;4.844;2023-08-06T00:46:59;42.38;40.41;52.70;;
69611;Laerm;56817;52.302;4.844;2023-08-06T00:47:10;41.96;38.59;51.15;;
69611;Laerm;56817;52.302;4.844;2023-08-06T00:47:20;39.56;36.83;48.18;;
69611;Laerm;56817;52.302;4.844;2023-08-06T00:47:31;39.06;36.58;50.44;;
69611;Laerm;56817;52.302;4.844;2023-08-06T00:47:41;39.17;37.37;43.79;;
69611;Laerm;56817;52.302;4.844;2023-08-06T00:47:52;39.28;36.88;44.88;;
69611;Laerm;56817;52.302;4.844;2023-08-06T00:48:03;40.10;37.78;48.87;;
69611;Laerm;56817;52.302;4.844;2023-08-06T00:48:14;39.94;37.79;47.27;;
69611;Laerm;56817;52.302;4.844;2023-08-06T00:48:25;40.78;38.59;46.36;;
69611;Laerm;56817;52.302;4.844;2023-08-06T00:48:35;40.51;37.42;44.73;;
69611;Laerm;56817;52.302;4.844;2023-08-06T00:48:45;39.42;37.06;44.37;;
69611;Laerm;56817;52.302;4.844;2023-08-06T00:48:56;40.03;36.98;48.42;;
69611;Laerm;56817;52.302;4.844;2023-08-06T00:49:06;40.09;37.25;51.55;;
69611;Laerm;56817;52.302;4.844;2023-08-06T00:49:17;38.68;36.51;42.82;;
69611;Laerm;56817;52.302;4.844;2023-08-06T00:49:28;39.47;37.54;43.97;;
69611;Laerm;56817;52.302;4.844;2023-08-06T00:49:38;41.21;37.46;50.42;;
69611;Laerm;56817;52.302;4.844;2023-08-06T00:49:49;39.94;37.91;44.37;;
69611;Laerm;56817;52.302;4.844;2023-08-06T00:49:59;41.20;38.40;48.17;;
69611;Laerm;56817;52.302;4.844;2023-08-06T00:50:09;41.54;39.49;46.28;;
69611;Laerm;56817;52.302;4.844;2023-08-06T00:50:19;42.19;39.67;49.66;;
69611;Laerm;56817;52.302;4.844;2023-08-06T00:50:32;41.73;38.59;46.43;;
69611;Laerm;56817;52.302;4.844;2023-08-06T00:50:42;39.85;37.66;45.45;;
69611;Laerm;56817;52.302;4.844;2023-08-06T00:50:53;39.22;35.74;51.07;;
69611;Laerm;56817;52.302;4.844;2023-08-06T00:51:03;40.11;37.19;46.06;;
69611;Laerm;56817;52.302;4.844;2023-08-06T00:51:14;39.96;37.61;45.01;;
69611;Laerm;56817;52.302;4.844;2023-08-06T00:51:24;39.78;37.26;45.95;;
69611;Laerm;56817;52.302;4.844;2023-08-06T00:51:35;40.16;37.33;49.72;;
69611;Laerm;56817;52.302;4.844;2023-08-06T00:51:45;40.34;37.46;46.95;;
69611;Laerm;56817;52.302;4.844;2023-08-06T00:51:55;41.12;38.23;44.63;;
69611;Laerm;56817;52.302;4.844;2023-08-06T00:52:06;41.29;38.19;48.48;;
69611;Laerm;56817;52.302;4.844;2023-08-06T00:52:17;39.27;36.70;50.22;;
69611;Laerm;56817;52.302;4.844;2023-08-06T00:52:27;38.97;36.75;50.07;;
69611;Laerm;56817;52.302;4.844;2023-08-06T00:52:38;38.35;36.77;42.32;;
69611;Laerm;56817;52.302;4.844;2023-08-06T00:52:48;39.53;37.30;47.95;;
69611;Laerm;56817;52.302;4.844;2023-08-06T00:52:59;39.57;36.40;52.26;;
69611;Laerm;56817;52.302;4.844;2023-08-06T00:53:09;39.44;37.31;43.78;;
69611;Laerm;56817;52.302;4.844;2023-08-06T00:53:20;39.13;37.17;46.46;;
69611;Laerm;56817;52.302;4.844;2023-08-06T00:53:30;39.97;37.32;47.05;;
69611;Laerm;56817;52.302;4.844;2023-08-06T00:53:40;41.03;37.88;49.81;;
69611;Laerm;56817;52.302;4.844;2023-08-06T00:53:51;40.39;38.09;43.39;;
69611;Laerm;56817;52.302;4.844;2023-08-06T00:54:02;40.10;37.59;49.67;;
69611;Laerm;56817;52.302;4.844;2023-08-06T00:54:12;39.48;37.01;47.10;;
69611;Laerm;56817;52.302;4.844;2023-08-06T00:54:23;39.82;37.41;49.91;;
69611;Laerm;56817;52.302;4.844;2023-08-06T00:54:33;41.31;38.78;43.07;;
69611;Laerm;56817;52.302;4.844;2023-08-06T00:54:44;39.02;36.34;43.37;;
69611;Laerm;56817;52.302;4.844;2023-08-06T00:54:55;37.39;35.55;40.39;;
69611;Laerm;56817;52.302;4.844;2023-08-06T00:55:05;37.62;35.23;49.34;;
69611;Laerm;56817;52.302;4.844;2023-08-06T00:55:16;38.43;35.76;47.59;;
69611;Laerm;56817;52.302;4.844;2023-08-06T00:55:26;38.33;35.34;46.43;;
69611;Laerm;56817;52.302;4.844;2023-08-06T00:55:36;38.16;36.01;46.85;;
69611;Laerm;56817;52.302;4.844;2023-08-06T00:55:47;39.70;36.80;45.11;;
69611;Laerm;56817;52.302;4.844;2023-08-06T00:55:57;40.53;37.97;44.04;;
69611;Laerm;56817;52.302;4.844;2023-08-06T00:56:08;42.36;39.62;50.51;;
69611;Laerm;56817;52.302;4.844;2023-08-06T00:56:19;42.79;39.94;48.38;;
69611;Laerm;56817;52.302;4.844;2023-08-06T00:56:29;40.59;38.40;44.42;;
69611;Laerm;56817;52.302;4.844;2023-08-06T00:56:39;39.95;38.18;48.39;;
69611;Laerm;56817;52.302;4.844;2023-08-06T00:56:51;39.90;37.96;49.63;;
69611;Laerm;56817;52.302;4.844;2023-08-06T00:57:01;39.48;37.65;42.40;;
69611;Laerm;56817;52.302;4.844;2023-08-06T00:57:12;40.47;38.08;49.58;;
69611;Laerm;56817;52.302;4.844;2023-08-06T00:57:23;40.30;37.13;55.29;;
69611;Laerm;56817;52.302;4.844;2023-08-06T00:57:34;38.93;36.56;46.63;;
69611;Laerm;56817;52.302;4.844;2023-08-06T00:57:44;38.54;36.04;44.49;;
69611;Laerm;56817;52.302;4.844;2023-08-06T00:57:55;39.68;37.76;48.20;;
69611;Laerm;56817;52.302;4.844;2023-08-06T00:58:06;41.02;37.03;45.72;;
69611;Laerm;56817;52.302;4.844;2023-08-06T00:58:17;44.38;40.95;48.96;;
69611;Laerm;56817;52.302;4.844;2023-08-06T00:58:27;42.10;38.61;47.74;;
69611;Laerm;56817;52.302;4.844;2023-08-06T00:58:37;39.62;37.43;48.43;;